sensor_id;sensor_type;location;lat;lon;timestamp;P1;durP1;ratioP1;P2;durP2;ratioP2
9270;SDS011;4673;53.458;9.940;2023-03-20T00:01:08;18.10;;;18.00;;
9270;SDS011;4673;53.458;9.940;2023-03-20T00:03:39;18.27;;;18.17;;
9270;SDS011;4673;53.458;9.940;2023-03-20T00:06:10;19.27;;;19.07;;
9270;SDS011;4673;53.458;9.940;2023-03-20T00:08:44;18.80;;;18.70;;
9270;SDS011;4673;53.458;9.940;2023-03-20T00:11:24;18.87;;;18.77;;
9270;SDS011;4673;53.458;9.940;2023-03-20T00:13:53;18.07;;;17.97;;
9270;SDS011;4673;53.458;9.940;2023-03-20T00:16:21;17.50;;;17.40;;
9270;SDS011;4673;53.458;9.940;2023-03-20T00:18:50;17.63;;;17.53;;
9270;SDS011;4673;53.458;9.940;2023-03-20T00:21:17;17.80;;;17.70;;
9270;SDS011;4673;53.458;9.940;2023-03-20T00:23:44;16.90;;;16.80;;
9270;SDS011;4673;53.458;9.940;2023-03-20T00:26:13;19.57;;;19.37;;
9270;SDS011;4673;53.458;9.940;2023-03-20T00:28:42;18.47;;;18.27;;
9270;SDS011;4673;53.458;9.940;2023-03-20T00:33:51;18.13;;;17.93;;
9270;SDS011;4673;53.458;9.940;2023-03-20T00:36:18;17.37;;;17.27;;
9270;SDS011;4673;53.458;9.940;2023-03-20T00:38:44;17.07;;;16.93;;
9270;SDS011;4673;53.458;9.940;2023-03-20T00:41:21;17.07;;;16.97;;
9270;SDS011;4673;53.458;9.940;2023-03-20T00:43:54;16.80;;;16.70;;
9270;SDS011;4673;53.458;9.940;2023-03-20T00:46:23;15.57;;;15.47;;
9270;SDS011;4673;53.458;9.940;2023-03-20T00:48:49;17.53;;;17.43;;
9270;SDS011;4673;53.458;9.940;2023-03-20T00:51:15;17.27;;;17.17;;
9270;SDS011;4673;53.458;9.940;2023-03-20T00:53:41;17.07;;;16.97;;
9270;SDS011;4673;53.458;9.940;2023-03-20T00:56:11;16.03;;;15.93;;
9270;SDS011;4673;53.458;9.940;2023-03-20T00:58:52;18.40;;;18.30;;
9270;SDS011;4673;53.458;9.940;2023-03-20T01:01:18;16.40;;;16.30;;
9270;SDS011;4673;53.458;9.940;2023-03-20T01:03:44;17.50;;;17.40;;
9270;SDS011;4673;53.458;9.940;2023-03-20T01:06:10;17.73;;;17.63;;
9270;SDS011;4673;53.458;9.940;2023-03-20T01:08:37;18.80;;;18.70;;
9270;SDS011;4673;53.458;9.940;2023-03-20T01:11:02;18.70;;;18.50;;
9270;SDS011;4673;53.458;9.940;2023-03-20T01:13:28;20.23;;;20.03;;
9270;SDS011;4673;53.458;9.940;2023-03-20T01:15:55;17.13;;;17.03;;
9270;SDS011;4673;53.458;9.940;2023-03-20T01:18:22;19.03;;;18.83;;
9270;SDS011;4673;53.458;9.940;2023-03-20T01:20:49;19.43;;;19.23;;
9270;SDS011;4673;53.458;9.940;2023-03-20T01:23:19;19.07;;;18.87;;
9270;SDS011;4673;53.458;9.940;2023-03-20T01:25:47;20.43;;;20.23;;
9270;SDS011;4673;53.458;9.940;2023-03-20T01:30:42;17.70;;;17.60;;
9270;SDS011;4673;53.458;9.940;2023-03-20T01:33:13;18.07;;;17.97;;
9270;SDS011;4673;53.458;9.940;2023-03-20T01:35:40;20.33;;;20.23;;
9270;SDS011;4673;53.458;9.940;2023-03-20T01:38:14;20.90;;;20.70;;
9270;SDS011;4673;53.458;9.940;2023-03-20T01:41:00;20.17;;;19.97;;
9270;SDS011;4673;53.458;9.940;2023-03-20T01:43:30;19.63;;;19.43;;
9270;SDS011;4673;53.458;9.940;2023-03-20T01:45:59;22.00;;;21.80;;
9270;SDS011;4673;53.458;9.940;2023-03-20T01:51:25;20.80;;;20.60;;
9270;SDS011;4673;53.458;9.940;2023-03-20T01:54:27;20.57;;;20.37;;
9270;SDS011;4673;53.458;9.940;2023-03-20T01:56:46;20.80;;;20.60;;
9270;SDS011;4673;53.458;9.940;2023-03-20T01:59:19;21.30;;;21.10;;
9270;SDS011;4673;53.458;9.940;2023-03-20T02:01:52;20.33;;;20.13;;
9270;SDS011;4673;53.458;9.940;2023-03-20T02:04:18;20.17;;;20.03;;
9270;SDS011;4673;53.458;9.940;2023-03-20T02:06:48;22.27;;;22.07;;
9270;SDS011;4673;53.458;9.940;2023-03-20T02:09:14;19.87;;;19.67;;
9270;SDS011;4673;53.458;9.940;2023-03-20T02:11:40;21.30;;;21.10;;
9270;SDS011;4673;53.458;9.940;2023-03-20T02:14:07;20.13;;;19.93;;
9270;SDS011;4673;53.458;9.940;2023-03-20T02:16:34;18.00;;;17.80;;
9270;SDS011;4673;53.458;9.940;2023-03-20T02:18:59;18.10;;;17.90;;
9270;SDS011;4673;53.458;9.940;2023-03-20T02:27:22;18.57;;;18.40;;
9270;SDS011;4673;53.458;9.940;2023-03-20T02:36:39;18.20;;;18.10;;
9270;SDS011;4673;53.458;9.940;2023-03-20T02:41:26;17.60;;;17.40;;
9270;SDS011;4673;53.458;9.940;2023-03-20T02:46:51;17.27;;;17.07;;
9270;SDS011;4673;53.458;9.940;2023-03-20T02:52:21;15.87;;;15.77;;
9270;SDS011;4673;53.458;9.940;2023-03-20T02:55:16;15.27;;;15.17;;
9270;SDS011;4673;53.458;9.940;2023-03-20T03:03:34;14.37;;;14.27;;
9270;SDS011;4673;53.458;9.940;2023-03-20T03:06:05;13.40;;;13.30;;
9270;SDS011;4673;53.458;9.940;2023-03-20T03:08:41;14.93;;;14.83;;
9270;SDS011;4673;53.458;9.940;2023-03-20T03:11:10;13.33;;;13.23;;
9270;SDS011;4673;53.458;9.940;2023-03-20T03:13:36;13.43;;;13.33;;
9270;SDS011;4673;53.458;9.940;2023-03-20T03:16:07;13.20;;;13.10;;
9270;SDS011;4673;53.458;9.940;2023-03-20T03:18:37;13.57;;;13.47;;
9270;SDS011;4673;53.458;9.940;2023-03-20T03:21:06;13.07;;;12.97;;
9270;SDS011;4673;53.458;9.940;2023-03-20T03:23:34;12.30;;;12.20;;
9270;SDS011;4673;53.458;9.940;2023-03-20T03:26:17;10.97;;;10.87;;
9270;SDS011;4673;53.458;9.940;2023-03-20T03:28:49;12.00;;;11.90;;
9270;SDS011;4673;53.458;9.940;2023-03-20T03:31:18;12.60;;;12.50;;
9270;SDS011;4673;53.458;9.940;2023-03-20T03:33:47;11.40;;;11.30;;
9270;SDS011;4673;53.458;9.940;2023-03-20T03:36:25;11.40;;;11.30;;
9270;SDS011;4673;53.458;9.940;2023-03-20T03:41:52;11.20;;;11.10;;
9270;SDS011;4673;53.458;9.940;2023-03-20T03:44:34;10.07;;;10.00;;
9270;SDS011;4673;53.458;9.940;2023-03-20T03:47:18;10.93;;;10.83;;
9270;SDS011;4673;53.458;9.940;2023-03-20T03:49:49;11.07;;;10.97;;
9270;SDS011;4673;53.458;9.940;2023-03-20T03:52:20;10.40;;;10.40;;
9270;SDS011;4673;53.458;9.940;2023-03-20T03:54:50;10.97;;;10.93;;
9270;SDS011;4673;53.458;9.940;2023-03-20T03:57:25;9.43;;;9.33;;
9270;SDS011;4673;53.458;9.940;2023-03-20T04:00:15;10.63;;;10.53;;
9270;SDS011;4673;53.458;9.940;2023-03-20T04:02:44;10.43;;;10.33;;
9270;SDS011;4673;53.458;9.940;2023-03-20T04:05:13;9.97;;;9.93;;
9270;SDS011;4673;53.458;9.940;2023-03-20T04:07:45;10.10;;;10.10;;
9270;SDS011;4673;53.458;9.940;2023-03-20T04:10:12;9.47;;;9.47;;
9270;SDS011;4673;53.458;9.940;2023-03-20T04:12:39;8.20;;;8.20;;
9270;SDS011;4673;53.458;9.940;2023-03-20T04:15:06;10.37;;;10.27;;
9270;SDS011;4673;53.458;9.940;2023-03-20T04:17:32;9.60;;;9.60;;
9270;SDS011;4673;53.458;9.940;2023-03-20T04:19:59;9.23;;;9.23;;
9270;SDS011;4673;53.458;9.940;2023-03-20T04:22:24;8.03;;;8.03;;
9270;SDS011;4673;53.458;9.940;2023-03-20T04:24:50;8.20;;;8.20;;
9270;SDS011;4673;53.458;9.940;2023-03-20T04:27:16;8.20;;;8.20;;
9270;SDS011;4673;53.458;9.940;2023-03-20T04:29:43;8.40;;;8.40;;
9270;SDS011;4673;53.458;9.940;2023-03-20T04:32:09;9.00;;;9.00;;
9270;SDS011;4673;53.458;9.940;2023-03-20T04:34:35;8.13;;;8.13;;
9270;SDS011;4673;53.458;9.940;2023-03-20T04:37:01;9.47;;;9.47;;
9270;SDS011;4673;53.458;9.940;2023-03-20T04:39:27;8.70;;;8.70;;
9270;SDS011;4673;53.458;9.940;2023-03-20T04:41:52;8.20;;;8.20;;
9270;SDS011;4673;53.458;9.940;2023-03-20T04:44:18;8.03;;;8.03;;
9270;SDS011;4673;53.458;9.940;2023-03-20T04:46:43;7.87;;;7.87;;
9270;SDS011;4673;53.458;9.940;2023-03-20T04:49:09;8.27;;;8.27;;
9270;SDS011;4673;53.458;9.940;2023-03-20T04:51:35;8.07;;;8.07;;
9270;SDS011;4673;53.458;9.940;2023-03-20T04:54:01;8.30;;;8.30;;
9270;SDS011;4673;53.458;9.940;2023-03-20T04:56:26;7.97;;;7.97;;
9270;SDS011;4673;53.458;9.940;2023-03-20T04:58:52;8.37;;;8.37;;
9270;SDS011;4673;53.458;9.940;2023-03-20T05:01:17;8.03;;;8.03;;
9270;SDS011;4673;53.458;9.940;2023-03-20T05:03:43;8.37;;;8.37;;
9270;SDS011;4673;53.458;9.940;2023-03-20T05:06:09;7.80;;;7.80;;
9270;SDS011;4673;53.458;9.940;2023-03-20T05:08:34;8.13;;;8.13;;
9270;SDS011;4673;53.458;9.940;2023-03-20T05:11:00;8.30;;;8.30;;
9270;SDS011;4673;53.458;9.940;2023-03-20T05:13:26;8.63;;;8.63;;
9270;SDS011;4673;53.458;9.940;2023-03-20T05:15:52;7.67;;;7.67;;
9270;SDS011;4673;53.458;9.940;2023-03-20T05:18:17;7.77;;;7.77;;
9270;SDS011;4673;53.458;9.940;2023-03-20T05:20:43;8.13;;;8.13;;
9270;SDS011;4673;53.458;9.940;2023-03-20T05:23:09;8.17;;;8.17;;
9270;SDS011;4673;53.458;9.940;2023-03-20T05:25:34;8.37;;;8.37;;
9270;SDS011;4673;53.458;9.940;2023-03-20T05:28:00;7.53;;;7.53;;
9270;SDS011;4673;53.458;9.940;2023-03-20T05:30:26;8.77;;;8.77;;
9270;SDS011;4673;53.458;9.940;2023-03-20T05:32:52;7.77;;;7.77;;
9270;SDS011;4673;53.458;9.940;2023-03-20T05:35:18;7.47;;;7.47;;
9270;SDS011;4673;53.458;9.940;2023-03-20T05:37:44;8.80;;;8.80;;
9270;SDS011;4673;53.458;9.940;2023-03-20T05:40:11;8.73;;;8.73;;
9270;SDS011;4673;53.458;9.940;2023-03-20T05:42:38;7.63;;;7.63;;
9270;SDS011;4673;53.458;9.940;2023-03-20T05:45:04;7.63;;;7.63;;
9270;SDS011;4673;53.458;9.940;2023-03-20T05:47:31;7.53;;;7.53;;
9270;SDS011;4673;53.458;9.940;2023-03-20T05:49:56;7.27;;;7.27;;
9270;SDS011;4673;53.458;9.940;2023-03-20T05:52:22;7.57;;;7.57;;
9270;SDS011;4673;53.458;9.940;2023-03-20T05:54:48;7.90;;;7.90;;
9270;SDS011;4673;53.458;9.940;2023-03-20T05:57:14;8.03;;;8.03;;
9270;SDS011;4673;53.458;9.940;2023-03-20T05:59:40;6.97;;;6.97;;
9270;SDS011;4673;53.458;9.940;2023-03-20T06:02:06;8.13;;;8.13;;
9270;SDS011;4673;53.458;9.940;2023-03-20T06:04:32;6.87;;;6.87;;
9270;SDS011;4673;53.458;9.940;2023-03-20T06:06:59;7.17;;;7.17;;
9270;SDS011;4673;53.458;9.940;2023-03-20T06:09:25;7.80;;;7.80;;
9270;SDS011;4673;53.458;9.940;2023-03-20T06:11:50;7.40;;;7.40;;
9270;SDS011;4673;53.458;9.940;2023-03-20T06:14:16;8.40;;;8.40;;
9270;SDS011;4673;53.458;9.940;2023-03-20T06:16:42;7.23;;;7.23;;
9270;SDS011;4673;53.458;9.940;2023-03-20T06:19:07;7.30;;;7.30;;
9270;SDS011;4673;53.458;9.940;2023-03-20T06:21:33;7.33;;;7.33;;
9270;SDS011;4673;53.458;9.940;2023-03-20T06:23:59;7.10;;;7.10;;
9270;SDS011;4673;53.458;9.940;2023-03-20T06:26:25;6.67;;;6.67;;
9270;SDS011;4673;53.458;9.940;2023-03-20T06:28:50;7.07;;;7.07;;
9270;SDS011;4673;53.458;9.940;2023-03-20T06:31:16;7.57;;;7.57;;
9270;SDS011;4673;53.458;9.940;2023-03-20T06:33:42;6.37;;;6.37;;
9270;SDS011;4673;53.458;9.940;2023-03-20T06:36:08;6.87;;;6.87;;
9270;SDS011;4673;53.458;9.940;2023-03-20T06:38:34;6.20;;;6.20;;
9270;SDS011;4673;53.458;9.940;2023-03-20T06:41:00;7.43;;;7.43;;
9270;SDS011;4673;53.458;9.940;2023-03-20T06:43:26;6.97;;;6.97;;
9270;SDS011;4673;53.458;9.940;2023-03-20T06:45:51;6.40;;;6.40;;
9270;SDS011;4673;53.458;9.940;2023-03-20T06:48:17;5.97;;;5.97;;
9270;SDS011;4673;53.458;9.940;2023-03-20T06:50:46;6.57;;;6.57;;
9270;SDS011;4673;53.458;9.940;2023-03-20T06:53:13;5.97;;;5.97;;
9270;SDS011;4673;53.458;9.940;2023-03-20T06:55:39;6.13;;;6.13;;
9270;SDS011;4673;53.458;9.940;2023-03-20T06:58:05;5.80;;;5.80;;
9270;SDS011;4673;53.458;9.940;2023-03-20T07:00:30;6.00;;;6.00;;
9270;SDS011;4673;53.458;9.940;2023-03-20T07:02:57;5.13;;;5.13;;
9270;SDS011;4673;53.458;9.940;2023-03-20T07:05:22;5.33;;;5.33;;
9270;SDS011;4673;53.458;9.940;2023-03-20T07:07:48;5.60;;;5.60;;
9270;SDS011;4673;53.458;9.940;2023-03-20T07:10:14;5.43;;;5.43;;
9270;SDS011;4673;53.458;9.940;2023-03-20T07:12:39;6.50;;;6.50;;
9270;SDS011;4673;53.458;9.940;2023-03-20T07:15:05;5.93;;;5.93;;
9270;SDS011;4673;53.458;9.940;2023-03-20T07:17:31;5.60;;;5.60;;
9270;SDS011;4673;53.458;9.940;2023-03-20T07:19:57;6.00;;;6.00;;
9270;SDS011;4673;53.458;9.940;2023-03-20T07:22:27;5.93;;;5.93;;
9270;SDS011;4673;53.458;9.940;2023-03-20T07:24:53;5.10;;;5.10;;
9270;SDS011;4673;53.458;9.940;2023-03-20T07:27:19;5.87;;;5.87;;
9270;SDS011;4673;53.458;9.940;2023-03-20T07:29:45;5.47;;;5.47;;
9270;SDS011;4673;53.458;9.940;2023-03-20T07:32:10;5.73;;;5.73;;
9270;SDS011;4673;53.458;9.940;2023-03-20T07:34:36;6.13;;;6.13;;
9270;SDS011;4673;53.458;9.940;2023-03-20T07:37:02;4.90;;;4.90;;
9270;SDS011;4673;53.458;9.940;2023-03-20T07:39:28;5.23;;;5.23;;
9270;SDS011;4673;53.458;9.940;2023-03-20T07:41:54;6.33;;;6.33;;
9270;SDS011;4673;53.458;9.940;2023-03-20T07:44:20;6.13;;;6.13;;
9270;SDS011;4673;53.458;9.940;2023-03-20T07:46:45;5.40;;;5.40;;
9270;SDS011;4673;53.458;9.940;2023-03-20T07:49:12;4.83;;;4.83;;
9270;SDS011;4673;53.458;9.940;2023-03-20T07:51:38;5.60;;;5.60;;
9270;SDS011;4673;53.458;9.940;2023-03-20T07:54:04;6.20;;;6.20;;
9270;SDS011;4673;53.458;9.940;2023-03-20T07:56:30;5.23;;;5.23;;
9270;SDS011;4673;53.458;9.940;2023-03-20T07:58:56;4.93;;;4.93;;
9270;SDS011;4673;53.458;9.940;2023-03-20T08:01:21;5.37;;;5.37;;
9270;SDS011;4673;53.458;9.940;2023-03-20T08:03:47;5.13;;;5.13;;
9270;SDS011;4673;53.458;9.940;2023-03-20T08:06:13;5.00;;;5.00;;
9270;SDS011;4673;53.458;9.940;2023-03-20T08:08:38;4.93;;;4.93;;
9270;SDS011;4673;53.458;9.940;2023-03-20T08:11:04;5.40;;;5.40;;
9270;SDS011;4673;53.458;9.940;2023-03-20T08:13:30;5.80;;;5.80;;
9270;SDS011;4673;53.458;9.940;2023-03-20T08:15:56;5.83;;;5.83;;
9270;SDS011;4673;53.458;9.940;2023-03-20T08:18:22;5.67;;;5.67;;
9270;SDS011;4673;53.458;9.940;2023-03-20T08:20:47;6.40;;;6.40;;
9270;SDS011;4673;53.458;9.940;2023-03-20T08:23:16;6.00;;;6.00;;
9270;SDS011;4673;53.458;9.940;2023-03-20T08:25:46;5.77;;;5.77;;
9270;SDS011;4673;53.458;9.940;2023-03-20T08:28:16;6.80;;;6.80;;
9270;SDS011;4673;53.458;9.940;2023-03-20T08:30:42;5.63;;;5.63;;
9270;SDS011;4673;53.458;9.940;2023-03-20T08:33:08;5.97;;;5.97;;
9270;SDS011;4673;53.458;9.940;2023-03-20T08:35:34;6.13;;;6.13;;
9270;SDS011;4673;53.458;9.940;2023-03-20T08:38:00;5.83;;;5.83;;
9270;SDS011;4673;53.458;9.940;2023-03-20T08:40:26;5.83;;;5.83;;
9270;SDS011;4673;53.458;9.940;2023-03-20T08:42:52;5.77;;;5.77;;
9270;SDS011;4673;53.458;9.940;2023-03-20T08:45:17;6.20;;;6.20;;
9270;SDS011;4673;53.458;9.940;2023-03-20T08:47:45;5.90;;;5.90;;
9270;SDS011;4673;53.458;9.940;2023-03-20T08:50:12;5.80;;;5.80;;
9270;SDS011;4673;53.458;9.940;2023-03-20T08:52:38;6.13;;;6.13;;
9270;SDS011;4673;53.458;9.940;2023-03-20T08:55:08;6.03;;;6.03;;
9270;SDS011;4673;53.458;9.940;2023-03-20T08:57:34;5.77;;;5.77;;
9270;SDS011;4673;53.458;9.940;2023-03-20T09:00:02;6.10;;;6.10;;
9270;SDS011;4673;53.458;9.940;2023-03-20T09:02:32;5.57;;;5.57;;
9270;SDS011;4673;53.458;9.940;2023-03-20T09:04:57;7.00;;;7.00;;
9270;SDS011;4673;53.458;9.940;2023-03-20T09:07:23;5.77;;;5.77;;
9270;SDS011;4673;53.458;9.940;2023-03-20T09:09:49;6.03;;;6.03;;
9270;SDS011;4673;53.458;9.940;2023-03-20T09:12:15;6.40;;;6.40;;
9270;SDS011;4673;53.458;9.940;2023-03-20T09:14:40;5.70;;;5.70;;
9270;SDS011;4673;53.458;9.940;2023-03-20T09:17:06;6.40;;;6.40;;
9270;SDS011;4673;53.458;9.940;2023-03-20T09:19:32;5.70;;;5.70;;
9270;SDS011;4673;53.458;9.940;2023-03-20T09:21:58;5.93;;;5.93;;
9270;SDS011;4673;53.458;9.940;2023-03-20T09:24:24;5.83;;;5.83;;
9270;SDS011;4673;53.458;9.940;2023-03-20T09:26:50;5.97;;;5.97;;
9270;SDS011;4673;53.458;9.940;2023-03-20T09:29:16;6.60;;;6.60;;
9270;SDS011;4673;53.458;9.940;2023-03-20T09:31:42;5.87;;;5.87;;
9270;SDS011;4673;53.458;9.940;2023-03-20T09:34:08;5.57;;;5.57;;
9270;SDS011;4673;53.458;9.940;2023-03-20T09:36:34;6.13;;;6.13;;
9270;SDS011;4673;53.458;9.940;2023-03-20T09:39:00;6.00;;;6.00;;
9270;SDS011;4673;53.458;9.940;2023-03-20T09:41:26;6.00;;;6.00;;
9270;SDS011;4673;53.458;9.940;2023-03-20T09:49:34;5.73;;;5.73;;
9270;SDS011;4673;53.458;9.940;2023-03-20T09:55:34;6.37;;;6.37;;
9270;SDS011;4673;53.458;9.940;2023-03-20T09:57:40;6.17;;;6.17;;
9270;SDS011;4673;53.458;9.940;2023-03-20T10:00:19;5.80;;;5.80;;
9270;SDS011;4673;53.458;9.940;2023-03-20T10:05:22;5.63;;;5.63;;
9270;SDS011;4673;53.458;9.940;2023-03-20T10:07:53;6.23;;;6.23;;
9270;SDS011;4673;53.458;9.940;2023-03-20T10:10:30;6.70;;;6.70;;
9270;SDS011;4673;53.458;9.940;2023-03-20T10:13:36;5.13;;;5.13;;
9270;SDS011;4673;53.458;9.940;2023-03-20T10:18:42;5.90;;;5.90;;
9270;SDS011;4673;53.458;9.940;2023-03-20T10:21:16;5.50;;;5.50;;
9270;SDS011;4673;53.458;9.940;2023-03-20T10:24:02;5.50;;;5.50;;
9270;SDS011;4673;53.458;9.940;2023-03-20T10:26:30;6.03;;;6.03;;
9270;SDS011;4673;53.458;9.940;2023-03-20T10:29:01;6.17;;;6.07;;
9270;SDS011;4673;53.458;9.940;2023-03-20T10:32:06;5.23;;;5.23;;
9270;SDS011;4673;53.458;9.940;2023-03-20T10:34:50;6.30;;;6.30;;
9270;SDS011;4673;53.458;9.940;2023-03-20T10:40:36;5.73;;;5.73;;
9270;SDS011;4673;53.458;9.940;2023-03-20T10:43:50;5.83;;;5.83;;
9270;SDS011;4673;53.458;9.940;2023-03-20T10:46:07;5.07;;;5.07;;
9270;SDS011;4673;53.458;9.940;2023-03-20T10:48:47;5.17;;;5.17;;
9270;SDS011;4673;53.458;9.940;2023-03-20T10:51:17;5.70;;;5.70;;
9270;SDS011;4673;53.458;9.940;2023-03-20T10:53:47;5.30;;;5.30;;
9270;SDS011;4673;53.458;9.940;2023-03-20T10:56:30;5.33;;;5.33;;
9270;SDS011;4673;53.458;9.940;2023-03-20T10:59:06;6.50;;;6.40;;
9270;SDS011;4673;53.458;9.940;2023-03-20T11:01:37;4.57;;;4.57;;
9270;SDS011;4673;53.458;9.940;2023-03-20T11:04:03;4.47;;;4.47;;
9270;SDS011;4673;53.458;9.940;2023-03-20T11:06:30;4.83;;;4.83;;
9270;SDS011;4673;53.458;9.940;2023-03-20T11:09:08;4.90;;;4.90;;
9270;SDS011;4673;53.458;9.940;2023-03-20T11:11:36;4.73;;;4.73;;
9270;SDS011;4673;53.458;9.940;2023-03-20T11:14:08;4.40;;;4.40;;
9270;SDS011;4673;53.458;9.940;2023-03-20T11:16:42;4.90;;;4.90;;
9270;SDS011;4673;53.458;9.940;2023-03-20T11:19:13;4.83;;;4.83;;
9270;SDS011;4673;53.458;9.940;2023-03-20T11:21:49;5.17;;;5.17;;
9270;SDS011;4673;53.458;9.940;2023-03-20T11:26:51;4.67;;;4.67;;
9270;SDS011;4673;53.458;9.940;2023-03-20T11:29:25;4.90;;;4.90;;
9270;SDS011;4673;53.458;9.940;2023-03-20T11:32:44;4.43;;;4.43;;
9270;SDS011;4673;53.458;9.940;2023-03-20T11:35:15;4.50;;;4.50;;
9270;SDS011;4673;53.458;9.940;2023-03-20T11:37:50;3.80;;;3.80;;
9270;SDS011;4673;53.458;9.940;2023-03-20T11:45:26;5.67;;;5.57;;
9270;SDS011;4673;53.458;9.940;2023-03-20T11:47:59;5.17;;;5.13;;
9270;SDS011;4673;53.458;9.940;2023-03-20T11:50:29;10.97;;;10.57;;
9270;SDS011;4673;53.458;9.940;2023-03-20T11:53:01;4.67;;;4.67;;
9270;SDS011;4673;53.458;9.940;2023-03-20T11:55:44;4.53;;;4.53;;
9270;SDS011;4673;53.458;9.940;2023-03-20T11:58:23;4.87;;;4.87;;
9270;SDS011;4673;53.458;9.940;2023-03-20T12:00:49;5.10;;;5.10;;
9270;SDS011;4673;53.458;9.940;2023-03-20T12:05:58;4.73;;;4.73;;
9270;SDS011;4673;53.458;9.940;2023-03-20T12:08:25;6.90;;;6.80;;
9270;SDS011;4673;53.458;9.940;2023-03-20T12:10:59;5.03;;;5.03;;
9270;SDS011;4673;53.458;9.940;2023-03-20T12:13:36;4.77;;;4.77;;
9270;SDS011;4673;53.458;9.940;2023-03-20T12:16:14;10.97;;;10.67;;
9270;SDS011;4673;53.458;9.940;2023-03-20T12:18:50;5.73;;;5.73;;
9270;SDS011;4673;53.458;9.940;2023-03-20T12:22:11;4.83;;;4.83;;
9270;SDS011;4673;53.458;9.940;2023-03-20T12:27:20;5.33;;;5.33;;
9270;SDS011;4673;53.458;9.940;2023-03-20T12:30:13;3.77;;;3.77;;
9270;SDS011;4673;53.458;9.940;2023-03-20T12:33:03;4.23;;;4.23;;
9270;SDS011;4673;53.458;9.940;2023-03-20T12:35:36;4.50;;;4.50;;
9270;SDS011;4673;53.458;9.940;2023-03-20T12:38:27;4.77;;;4.77;;
9270;SDS011;4673;53.458;9.940;2023-03-20T12:41:21;5.27;;;5.27;;
9270;SDS011;4673;53.458;9.940;2023-03-20T12:54:12;4.87;;;4.87;;
9270;SDS011;4673;53.458;9.940;2023-03-20T13:03:26;4.30;;;4.30;;
9270;SDS011;4673;53.458;9.940;2023-03-20T13:06:19;4.37;;;4.37;;
9270;SDS011;4673;53.458;9.940;2023-03-20T13:11:30;4.27;;;4.27;;
9270;SDS011;4673;53.458;9.940;2023-03-20T13:14:08;4.50;;;4.50;;
9270;SDS011;4673;53.458;9.940;2023-03-20T13:19:58;4.47;;;4.47;;
9270;SDS011;4673;53.458;9.940;2023-03-20T13:22:21;4.23;;;4.23;;
9270;SDS011;4673;53.458;9.940;2023-03-20T13:33:40;4.60;;;4.60;;
9270;SDS011;4673;53.458;9.940;2023-03-20T13:38:49;4.23;;;4.23;;
9270;SDS011;4673;53.458;9.940;2023-03-20T13:41:21;4.13;;;4.13;;
9270;SDS011;4673;53.458;9.940;2023-03-20T13:43:53;4.23;;;4.23;;
9270;SDS011;4673;53.458;9.940;2023-03-20T13:46:32;3.93;;;3.93;;
9270;SDS011;4673;53.458;9.940;2023-03-20T13:49:13;4.37;;;4.37;;
9270;SDS011;4673;53.458;9.940;2023-03-20T13:57:26;3.70;;;3.70;;
9270;SDS011;4673;53.458;9.940;2023-03-20T14:03:02;3.53;;;3.53;;
9270;SDS011;4673;53.458;9.940;2023-03-20T14:05:35;3.70;;;3.70;;
9270;SDS011;4673;53.458;9.940;2023-03-20T14:14:16;4.37;;;4.37;;
9270;SDS011;4673;53.458;9.940;2023-03-20T14:16:58;5.67;;;5.67;;
9270;SDS011;4673;53.458;9.940;2023-03-20T14:19:45;4.03;;;4.03;;
9270;SDS011;4673;53.458;9.940;2023-03-20T14:22:34;3.70;;;3.70;;
9270;SDS011;4673;53.458;9.940;2023-03-20T14:25:06;3.87;;;3.87;;
9270;SDS011;4673;53.458;9.940;2023-03-20T14:32:59;3.77;;;3.77;;
9270;SDS011;4673;53.458;9.940;2023-03-20T14:35:30;3.43;;;3.43;;
9270;SDS011;4673;53.458;9.940;2023-03-20T14:41:09;3.33;;;3.33;;
9270;SDS011;4673;53.458;9.940;2023-03-20T14:52:09;3.93;;;3.93;;
9270;SDS011;4673;53.458;9.940;2023-03-20T14:54:50;3.87;;;3.87;;
9270;SDS011;4673;53.458;9.940;2023-03-20T14:57:18;4.23;;;4.23;;
9270;SDS011;4673;53.458;9.940;2023-03-20T14:59:58;3.73;;;3.73;;
9270;SDS011;4673;53.458;9.940;2023-03-20T15:02:28;4.03;;;4.03;;
9270;SDS011;4673;53.458;9.940;2023-03-20T15:04:59;4.13;;;4.13;;
9270;SDS011;4673;53.458;9.940;2023-03-20T15:07:29;3.83;;;3.83;;
9270;SDS011;4673;53.458;9.940;2023-03-20T15:09:58;4.87;;;4.87;;
9270;SDS011;4673;53.458;9.940;2023-03-20T15:12:29;4.00;;;4.00;;
9270;SDS011;4673;53.458;9.940;2023-03-20T15:15:05;4.73;;;4.73;;
9270;SDS011;4673;53.458;9.940;2023-03-20T15:17:34;4.43;;;4.43;;
9270;SDS011;4673;53.458;9.940;2023-03-20T15:20:22;4.53;;;4.53;;
9270;SDS011;4673;53.458;9.940;2023-03-20T15:22:53;4.43;;;4.43;;
9270;SDS011;4673;53.458;9.940;2023-03-20T15:25:22;4.63;;;4.63;;
9270;SDS011;4673;53.458;9.940;2023-03-20T15:30:56;3.87;;;3.87;;
9270;SDS011;4673;53.458;9.940;2023-03-20T15:33:27;5.03;;;5.03;;
9270;SDS011;4673;53.458;9.940;2023-03-20T15:36:14;4.57;;;4.57;;
9270;SDS011;4673;53.458;9.940;2023-03-20T15:38:48;4.97;;;4.97;;
9270;SDS011;4673;53.458;9.940;2023-03-20T15:41:24;4.43;;;4.43;;
9270;SDS011;4673;53.458;9.940;2023-03-20T15:43:52;4.20;;;4.20;;
9270;SDS011;4673;53.458;9.940;2023-03-20T15:46:24;4.80;;;4.80;;
9270;SDS011;4673;53.458;9.940;2023-03-20T15:48:53;5.33;;;5.33;;
9270;SDS011;4673;53.458;9.940;2023-03-20T15:51:20;5.37;;;5.37;;
9270;SDS011;4673;53.458;9.940;2023-03-20T15:53:50;5.10;;;5.10;;
9270;SDS011;4673;53.458;9.940;2023-03-20T15:56:16;5.17;;;5.17;;
9270;SDS011;4673;53.458;9.940;2023-03-20T15:58:44;4.53;;;4.53;;
9270;SDS011;4673;53.458;9.940;2023-03-20T16:01:16;4.90;;;4.90;;
9270;SDS011;4673;53.458;9.940;2023-03-20T16:03:43;5.30;;;5.30;;
9270;SDS011;4673;53.458;9.940;2023-03-20T16:06:10;5.30;;;5.30;;
9270;SDS011;4673;53.458;9.940;2023-03-20T16:08:40;6.40;;;6.40;;
9270;SDS011;4673;53.458;9.940;2023-03-20T16:11:09;6.13;;;6.13;;
9270;SDS011;4673;53.458;9.940;2023-03-20T16:13:39;6.27;;;6.27;;
9270;SDS011;4673;53.458;9.940;2023-03-20T16:16:24;5.73;;;5.73;;
9270;SDS011;4673;53.458;9.940;2023-03-20T16:18:50;5.53;;;5.53;;
9270;SDS011;4673;53.458;9.940;2023-03-20T16:21:21;5.77;;;5.77;;
9270;SDS011;4673;53.458;9.940;2023-03-20T16:23:52;5.40;;;5.40;;
9270;SDS011;4673;53.458;9.940;2023-03-20T16:26:21;5.43;;;5.43;;
9270;SDS011;4673;53.458;9.940;2023-03-20T16:28:49;6.70;;;6.70;;
9270;SDS011;4673;53.458;9.940;2023-03-20T16:33:57;6.00;;;6.00;;
9270;SDS011;4673;53.458;9.940;2023-03-20T16:36:28;6.00;;;6.00;;
9270;SDS011;4673;53.458;9.940;2023-03-20T16:39:06;6.03;;;6.03;;
9270;SDS011;4673;53.458;9.940;2023-03-20T16:41:42;5.63;;;5.63;;
9270;SDS011;4673;53.458;9.940;2023-03-20T16:44:16;5.83;;;5.83;;
9270;SDS011;4673;53.458;9.940;2023-03-20T16:46:53;6.53;;;6.53;;
9270;SDS011;4673;53.458;9.940;2023-03-20T16:52:02;7.20;;;7.10;;
9270;SDS011;4673;53.458;9.940;2023-03-20T16:54:34;6.13;;;6.13;;
9270;SDS011;4673;53.458;9.940;2023-03-20T16:57:01;6.80;;;6.80;;
9270;SDS011;4673;53.458;9.940;2023-03-20T16:59:31;6.30;;;6.30;;
9270;SDS011;4673;53.458;9.940;2023-03-20T17:02:38;6.10;;;6.10;;
9270;SDS011;4673;53.458;9.940;2023-03-20T17:05:02;6.87;;;6.87;;
9270;SDS011;4673;53.458;9.940;2023-03-20T17:07:30;5.70;;;5.70;;
9270;SDS011;4673;53.458;9.940;2023-03-20T17:10:17;5.93;;;5.93;;
9270;SDS011;4673;53.458;9.940;2023-03-20T17:12:46;5.80;;;5.80;;
9270;SDS011;4673;53.458;9.940;2023-03-20T17:15:16;5.73;;;5.73;;
9270;SDS011;4673;53.458;9.940;2023-03-20T17:17:47;6.07;;;6.07;;
9270;SDS011;4673;53.458;9.940;2023-03-20T17:22:43;6.27;;;6.27;;
9270;SDS011;4673;53.458;9.940;2023-03-20T17:25:09;5.80;;;5.80;;
9270;SDS011;4673;53.458;9.940;2023-03-20T17:27:35;6.10;;;6.10;;
9270;SDS011;4673;53.458;9.940;2023-03-20T17:30:04;6.60;;;6.60;;
9270;SDS011;4673;53.458;9.940;2023-03-20T17:32:31;6.60;;;6.60;;
9270;SDS011;4673;53.458;9.940;2023-03-20T17:34:57;6.47;;;6.47;;
9270;SDS011;4673;53.458;9.940;2023-03-20T17:37:24;7.23;;;7.23;;
9270;SDS011;4673;53.458;9.940;2023-03-20T17:39:51;7.03;;;7.03;;
9270;SDS011;4673;53.458;9.940;2023-03-20T17:42:22;7.90;;;7.80;;
9270;SDS011;4673;53.458;9.940;2023-03-20T17:44:50;7.33;;;7.33;;
9270;SDS011;4673;53.458;9.940;2023-03-20T17:47:18;6.37;;;6.37;;
9270;SDS011;4673;53.458;9.940;2023-03-20T17:49:45;6.77;;;6.77;;
9270;SDS011;4673;53.458;9.940;2023-03-20T17:52:20;6.93;;;6.93;;
9270;SDS011;4673;53.458;9.940;2023-03-20T17:54:48;7.23;;;7.13;;